createdAt,value
2018-09-12T00:04:42.433Z,43.79
2018-09-12T00:14:46.639Z,43.55
2018-09-12T00:24:49.360Z,43.88
2018-09-12T00:34:52.175Z,44.48
2018-09-12T00:44:56.497Z,43.44
2018-09-12T00:54:59.432Z,43.52
2018-09-12T01:05:01.988Z,43.48
2018-09-12T01:15:05.618Z,43.94
2018-09-12T01:25:08.020Z,44.23
2018-09-12T01:35:10.648Z,44.38
2018-09-12T01:45:13.897Z,43.71
2018-09-12T01:55:16.565Z,44.09
2018-09-12T02:05:19.128Z,44.24
2018-09-12T02:15:22.149Z,44.72
2018-09-12T02:25:24.689Z,44.60
2018-09-12T02:35:27.390Z,44.16
2018-09-12T02:45:31.261Z,44.03
2018-09-12T02:55:34.217Z,44.92
2018-09-12T03:05:36.761Z,44.96
2018-09-12T03:15:39.599Z,44.18
2018-09-12T03:25:42.253Z,44.52
2018-09-12T03:35:44.861Z,44.42
2018-09-12T03:45:47.264Z,44.30
2018-09-12T03:55:49.963Z,44.78
2018-09-12T04:05:52.551Z,45.12
2018-09-12T04:15:55.694Z,44.49
2018-09-12T04:25:58.153Z,45.29
2018-09-12T04:36:00.511Z,44.78
2018-09-12T04:46:03.181Z,45.24
2018-09-12T04:56:05.600Z,45.07
2018-09-12T05:06:08.108Z,45.18
2018-09-12T05:16:10.616Z,45.34
2018-09-12T05:26:13.500Z,44.31
2018-09-12T05:36:15.979Z,44.97
2018-09-12T05:46:19.072Z,44.46
2018-09-12T05:56:21.763Z,44.32
2018-09-12T06:06:24.327Z,44.38
2018-09-12T06:16:26.933Z,45.15
2018-09-12T06:26:29.570Z,44.48
2018-09-12T06:36:32.061Z,44.16
2018-09-12T06:46:34.629Z,44.72
2018-09-12T06:56:37.098Z,44.86
2018-09-12T07:06:39.693Z,43.91
2018-09-12T07:16:42.145Z,44.13
2018-09-12T07:26:44.823Z,44.10
2018-09-12T07:36:47.399Z,45.22
2018-09-12T07:46:49.915Z,46.49
2018-09-12T07:56:52.414Z,45.89
2018-09-12T08:06:54.750Z,45.69
2018-09-12T08:16:57.318Z,44.86
2018-09-12T08:26:59.890Z,44.55
2018-09-12T08:37:02.374Z,46.85
2018-09-12T08:47:04.894Z,45.90
2018-09-12T08:57:07.409Z,46.29
2018-09-12T09:07:09.900Z,44.81
2018-09-12T09:17:12.524Z,45.19
2018-09-12T09:27:14.967Z,44.64
2018-09-12T09:37:17.614Z,45.14
2018-09-12T09:47:20.008Z,44.44
2018-09-12T09:57:22.963Z,44.07
2018-09-12T10:07:30.812Z,43.93
2018-09-12T10:17:34.308Z,43.09
2018-09-12T10:27:36.736Z,44.38
2018-09-12T10:37:39.233Z,41.33
2018-09-12T10:47:41.740Z,40.45
2018-09-12T10:57:44.129Z,40.90
2018-09-12T11:07:46.648Z,40.50
2018-09-12T11:17:49.889Z,40.48
2018-09-12T11:27:52.288Z,41.04
2018-09-12T11:37:54.958Z,39.97
2018-09-12T11:47:57.605Z,40.93
2018-09-12T11:58:00.029Z,40.99
2018-09-12T12:08:03.386Z,41.02
2018-09-12T12:18:06.010Z,38.15
2018-09-12T12:28:08.401Z,38.08
2018-09-12T12:38:10.971Z,39.48
2018-09-12T12:48:13.586Z,39.45
2018-09-12T12:58:16.082Z,37.21
2018-09-12T13:08:18.436Z,39.35
2018-09-12T13:18:20.857Z,39.23
2018-09-12T13:28:23.312Z,38.55
2018-09-12T13:38:25.742Z,38.40
2018-09-12T13:48:28.239Z,37.02
2018-09-12T13:58:30.769Z,38.46
2018-09-12T14:08:34.131Z,37.07
2018-09-12T14:18:36.575Z,39.25
2018-09-12T14:28:39.147Z,37.82
2018-09-12T14:38:41.789Z,39.61
2018-09-12T14:48:44.215Z,39.03
2018-09-12T14:58:46.672Z,40.48
2018-09-12T15:08:49.027Z,40.10
2018-09-12T15:18:51.632Z,41.04
2018-09-12T15:28:54.204Z,40.86
2018-09-12T15:38:56.859Z,40.73
2018-09-12T15:48:59.556Z,40.95
2018-09-12T15:59:02.461Z,41.15
2018-09-12T16:09:06.511Z,42.45
2018-09-12T16:19:09.009Z,41.92
2018-09-12T16:29:11.570Z,42.59
2018-09-12T16:39:14.022Z,41.57
2018-09-12T16:49:16.545Z,41.91
2018-09-12T16:59:19.077Z,41.80
2018-09-12T17:09:21.539Z,38.86
2018-09-12T17:19:23.949Z,40.88
2018-09-12T17:29:26.504Z,41.93
2018-09-12T17:39:29.253Z,40.56
2018-09-12T17:49:31.724Z,39.65
2018-09-12T17:59:34.332Z,40.04
2018-09-12T18:09:36.954Z,40.12
2018-09-12T18:19:39.527Z,39.86
2018-09-12T18:29:42.089Z,39.87
2018-09-12T18:39:44.617Z,41.00
2018-09-12T18:49:47.109Z,40.52
2018-09-12T18:59:49.736Z,41.23
2018-09-12T19:09:52.441Z,40.90
2018-09-12T19:19:55.265Z,41.00
2018-09-12T19:29:57.841Z,42.26
2018-09-12T19:40:00.371Z,42.47
2018-09-12T19:50:02.911Z,42.20
2018-09-12T20:00:08.568Z,41.70
2018-09-12T20:10:10.920Z,43.00
2018-09-12T20:20:13.469Z,42.72
2018-09-12T20:30:17.328Z,44.21
2018-09-12T20:40:19.705Z,44.91
2018-09-12T20:50:22.288Z,46.27
2018-09-12T21:00:24.837Z,46.92
2018-09-12T21:10:27.413Z,47.18
2018-09-12T21:20:30.000Z,45.50
2018-09-12T21:30:33.722Z,45.38
2018-09-12T21:40:36.818Z,43.85
2018-09-12T21:50:39.229Z,43.83
2018-09-12T22:00:41.833Z,43.02
2018-09-12T22:10:44.292Z,42.99
2018-09-12T22:20:47.025Z,42.85
2018-09-12T22:30:49.720Z,43.01
2018-09-12T22:40:52.289Z,43.41
2018-09-12T22:50:55.061Z,43.50
2018-09-12T23:00:57.749Z,43.33
2018-09-12T23:11:00.277Z,43.52
2018-09-12T23:21:02.919Z,43.79
2018-09-12T23:31:05.510Z,43.55
2018-09-12T23:41:07.971Z,42.95
2018-09-12T23:51:10.471Z,44.07
